Nearby METAR Reports

 

EGTE - Exeter Airport, United Kingdom
Distance from station: S 19km
Updated: 23/08/2019 08:50
Few Clouds
Few Clouds
 Wind from varies
Wind: varies 2 km/h
Temperature: 15°C
Dew Point: 14°C
Humidity: 94%
Barometer: 1025 hPa
Clouds: Few Clouds
Visibility: 10 km
Cloud details: Few Clouds 457 m
2019/08/23 07:50 EGTE 230750Z VRB01KT 9999 FEW015 15/14 Q1025
EGDY - Yeovilton (navy), United Kingdom
Distance from station: ENE 55km
Updated: 23/08/2019 08:50
Clear
Clear
 Wind from SE
Wind: SE 4 km/h
Temperature: 17°C
Dew Point: 15°C
Humidity: 88%
Barometer: 1025 hPa
Clouds: Clear
Visibility: 10 km
2019/08/23 07:50 EGDY 230750Z AUTO 13002KT 9999 NCD 17/15 Q1025
 
EGFF - Cardiff-Wales Ar, United Kingdom
Distance from station: N 56km
Updated: 23/08/2019 08:50
Partly cloudy
Partly cloudy
 Wind from S
Wind: S 9 km/h
Temperature: 18°C
Dew Point: 15°C
Humidity: 83%
Barometer: 1025 hPa
Clouds: Partly cloudy
Visibility: 10 km
Cloud details: Partly cloudy 274 m
2019/08/23 07:50 EGFF 230750Z AUTO 17005KT 9999 SCT009 18/15 Q1025
EGDX - St Athan Raf, United Kingdom
Distance from station: N 58km
Updated: 01/04/2019 13:50
NOT Current
Clear
Clear
 Wind from E
Wind: E 15 km/h
Temperature: 11°C
Dew Point: 5°C
Humidity: 67%
Barometer: 1019 hPa
Clouds: Clear
Visibility: 10 km
2019/04/01 12:50 EGDX 011250Z AUTO 10008KT 9999 NCD 11/05 Q1019
 
EGGD - Bristol/Lulsgate, United Kingdom
Distance from station: NE 71km
Updated: 23/08/2019 08:50
Clear
Clear
 Wind from SSW
Wind: SSW 9 km/h
Temperature: 17°C
Dew Point: 14°C
Humidity: 83%
Barometer: 1025 hPa
Clouds: Clear
Visibility: 10 km
2019/08/23 07:50 EGGD 230750Z AUTO 21005KT 180V240 9999 NCD 17/14 Q1025